Aviation Digital Data Service (ADDS)

Output produced by METARs form (0728 UTC 23 September 2017)
found at http://www.aviationweather.gov/adds/metars/
 
KSBY 230654Z AUTO 00000KT 10SM CLR 17/17 A2999 RMK AO2 SLP156 T01720167
KSBY 230520Z 2306/2406 VRB03KT P6SM SCT150 
     FM231600 01007KT P6SM SKC 
     FM232300 00000KT P6SM SKC